Time;durP1;ratioP1;P1;durP2;ratioP2;P2;SDS_P1;SDS_P2;PMS_P1;PMS_P2;Temp;Humidity;BMP_temperature;BMP_pressure;BME280_temperature;BME280_humidity;BME280_pressure;Samples;Min_cycle;Max_cycle;Signal;HPM_P1;HPM_P2
2023/10/12 00:02:21;;;;;;;17.83;5.20;;;19.90;99.90;;;;;;4996283;28;20030;-84
2023/10/12 00:04:53;;;;;;;17.52;4.88;;;19.80;99.90;;;;;;4993440;28;20091;-87
2023/10/12 00:07:33;;;;;;;24.98;6.72;;;19.90;99.90;;;;;;4993840;28;20044;-85
2023/10/12 00:12:46;;;;;;;22.33;5.88;;;19.90;99.90;;;;;;4994902;28;20058;-83
2023/10/12 00:17:55;;;;;;;26.13;6.47;;;19.90;99.90;;;;;;5002103;28;20070;-85
2023/10/12 00:20:24;;;;;;;21.02;5.72;;;19.80;99.90;;;;;;4998732;28;20030;-86
2023/10/12 00:22:50;;;;;;;24.15;5.95;;;19.80;99.90;;;;;;5001799;28;20060;-89
2023/10/12 00:25:16;;;;;;;23.83;6.00;;;19.70;99.90;;;;;;4998542;28;20030;-89
2023/10/12 00:27:43;;;;;;;24.63;6.25;;;19.70;99.90;;;;;;4994294;28;20345;-86
2023/10/12 00:30:12;;;;;;;31.95;6.57;;;19.70;99.90;;;;;;5001184;28;20087;-88
2023/10/12 00:32:37;;;;;;;25.63;6.15;;;19.70;99.90;;;;;;5001009;28;20022;-89
2023/10/12 00:35:04;;;;;;;21.80;5.35;;;19.70;99.90;;;;;;4998821;28;20029;-89
2023/10/12 00:37:32;;;;;;;27.30;5.90;;;19.70;99.90;;;;;;5000972;28;20064;-86
2023/10/12 00:39:58;;;;;;;21.23;4.95;;;19.70;99.90;;;;;;4999702;28;20034;-85
2023/10/12 00:42:34;;;;;;;20.95;5.97;;;19.70;99.90;;;;;;4994372;28;20042;-83
2023/10/12 00:45:11;;;;;;;20.50;5.75;;;19.70;99.90;;;;;;4993246;28;20022;-85
2023/10/12 00:47:44;;;;;;;18.02;6.35;;;19.60;99.90;;;;;;4995990;28;20141;-85
2023/10/12 00:50:14;;;;;;;19.35;5.60;;;19.60;99.90;;;;;;4994767;28;20151;-85
2023/10/12 00:53:02;;;;;;;34.22;6.70;;;19.60;99.90;;;;;;4988164;28;20052;-83
2023/10/12 00:55:37;;;;;;;30.83;6.00;;;19.60;99.90;;;;;;4993325;28;20023;-85
2023/10/12 00:58:10;;;;;;;15.65;4.75;;;19.60;99.90;;;;;;4995486;28;20451;-88
2023/10/12 01:00:51;;;;;;;21.20;6.07;;;19.60;99.90;;;;;;4995025;28;20049;-84
2023/10/12 01:03:31;;;;;;;27.35;5.43;;;19.60;99.90;;;;;;4993954;28;20083;-87
2023/10/12 01:08:42;;;;;;;27.73;6.00;;;19.50;99.90;;;;;;4997662;28;20120;-87
2023/10/12 01:11:21;;;;;;;18.13;5.85;;;19.50;99.90;;;;;;5000581;28;20030;-86
2023/10/12 01:16:42;;;;;;;12.32;4.88;;;19.50;99.90;;;;;;4994801;28;20060;-87
2023/10/12 01:19:09;;;;;;;21.50;5.50;;;19.40;99.90;;;;;;4999474;28;20037;-84
2023/10/12 01:21:38;;;;;;;21.25;6.22;;;19.40;99.90;;;;;;4991625;28;20030;-84
2023/10/12 01:24:11;;;;;;;17.60;5.13;;;19.40;99.90;;;;;;4997307;28;20534;-83
2023/10/12 01:26:38;;;;;;;28.90;6.47;;;19.50;99.90;;;;;;4989414;28;20018;-80
2023/10/12 01:29:10;;;;;;;18.77;5.32;;;19.40;99.90;;;;;;5000605;28;20475;-81
2023/10/12 01:31:36;;;;;;;19.70;5.45;;;19.40;99.90;;;;;;4993514;28;20556;-80
2023/10/12 01:34:03;;;;;;;30.55;6.80;;;19.40;99.90;;;;;;5002359;28;20037;-83
2023/10/12 01:36:30;;;;;;;23.45;5.93;;;19.40;99.90;;;;;;4999909;28;20026;-86
2023/10/12 01:39:12;;;;;;;27.08;6.38;;;19.40;99.90;;;;;;4997460;28;20022;-83
2023/10/12 01:41:41;;;;;;;27.55;5.53;;;19.40;99.90;;;;;;4995420;28;20037;-83
2023/10/12 01:44:11;;;;;;;17.77;6.15;;;19.40;99.90;;;;;;4987236;28;20041;-82
2023/10/12 01:46:41;;;;;;;23.95;6.40;;;19.40;99.90;;;;;;4994061;28;20025;-79
2023/10/12 01:49:11;;;;;;;27.13;5.57;;;19.40;99.90;;;;;;4994696;28;20475;-86
2023/10/12 01:51:42;;;;;;;30.63;8.18;;;19.40;99.90;;;;;;4995561;28;20497;-86
2023/10/12 01:54:12;;;;;;;22.10;5.90;;;19.40;99.90;;;;;;4992119;28;20042;-83
2023/10/12 01:56:38;;;;;;;21.30;6.38;;;19.40;99.90;;;;;;4998210;28;20686;-84
2023/10/12 01:59:07;;;;;;;28.98;6.80;;;19.40;99.90;;;;;;4995072;28;20045;-82
2023/10/12 02:01:42;;;;;;;23.58;6.00;;;19.40;99.90;;;;;;4998548;28;20026;-83
2023/10/12 02:04:07;;;;;;;22.27;6.55;;;19.40;99.90;;;;;;4999424;28;20030;-83
2023/10/12 02:06:33;;;;;;;32.58;6.53;;;19.40;99.90;;;;;;4996173;28;20030;-80
2023/10/12 02:09:11;;;;;;;29.40;6.55;;;19.40;99.90;;;;;;4992307;28;20507;-88
2023/10/12 02:11:45;;;;;;;22.17;5.70;;;19.40;99.90;;;;;;4996929;28;20034;-85
2023/10/12 02:14:12;;;;;;;17.95;5.70;;;19.40;99.90;;;;;;4990375;28;20508;-81
2023/10/12 02:16:39;;;;;;;23.88;6.00;;;19.40;99.90;;;;;;4993207;28;20049;-88
2023/10/12 02:19:07;;;;;;;20.45;6.05;;;19.40;99.90;;;;;;4990048;28;20034;-82
2023/10/12 02:21:37;;;;;;;20.50;6.15;;;19.30;99.90;;;;;;4998549;28;20022;-83
2023/10/12 02:26:52;;;;;;;23.60;5.40;;;19.30;99.90;;;;;;4995526;28;20026;-83
2023/10/12 02:29:21;;;;;;;17.60;5.95;;;19.30;99.90;;;;;;5000434;28;20046;-85
2023/10/12 02:34:26;;;;;;;21.15;5.45;;;19.30;99.90;;;;;;4990592;28;20042;-83
2023/10/12 02:39:41;;;;;;;21.40;6.45;;;19.30;99.90;;;;;;4996013;28;20113;-82
2023/10/12 02:47:23;;;;;;;15.10;5.25;;;19.30;99.90;;;;;;4991615;28;20379;-83
2023/10/12 02:49:51;;;;;;;14.85;5.97;;;19.20;99.90;;;;;;5001314;28;20041;-85
2023/10/12 02:52:19;;;;;;;22.98;6.30;;;19.20;99.90;;;;;;4992602;28;20030;-88
2023/10/12 02:54:51;;;;;;;17.38;5.97;;;19.20;99.90;;;;;;4991648;28;20041;-83
2023/10/12 02:57:25;;;;;;;21.13;5.63;;;19.10;99.90;;;;;;4989680;28;20018;-84
2023/10/12 03:00:12;;;;;;;23.85;5.32;;;19.10;99.90;;;;;;4988542;28;20446;-80
2023/10/12 03:02:41;;;;;;;23.58;6.72;;;19.10;99.90;;;;;;4996649;28;20550;-80
2023/10/12 03:05:07;;;;;;;20.40;6.20;;;19.10;99.90;;;;;;4995085;28;20042;-85
2023/10/12 03:07:36;;;;;;;13.02;6.00;;;19.10;99.90;;;;;;4991824;28;20055;-84
2023/10/12 03:10:24;;;;;;;26.15;7.15;;;19.00;99.90;;;;;;4989084;28;20082;-84
2023/10/12 03:12:54;;;;;;;23.73;6.30;;;19.10;99.90;;;;;;4995655;28;20037;-82
2023/10/12 03:15:44;;;;;;;20.50;5.88;;;19.10;99.90;;;;;;4993274;28;20450;-82
2023/10/12 03:18:12;;;;;;;31.20;6.22;;;19.00;99.90;;;;;;4987123;28;20049;-85
2023/10/12 03:20:38;;;;;;;25.85;6.00;;;19.00;99.90;;;;;;4993581;28;20026;-86
2023/10/12 03:23:19;;;;;;;27.20;7.15;;;19.00;99.90;;;;;;4993338;28;20037;-81
2023/10/12 03:25:51;;;;;;;28.63;5.78;;;19.00;99.90;;;;;;4998058;28;20075;-85
2023/10/12 03:28:30;;;;;;;27.15;6.32;;;19.00;99.90;;;;;;4988551;28;20063;-81
2023/10/12 03:33:46;;;;;;;18.27;6.05;;;18.90;99.90;;;;;;4995401;28;20049;-83
2023/10/12 03:36:25;;;;;;;26.33;5.93;;;18.90;99.90;;;;;;4991888;28;20037;-82
2023/10/12 03:41:46;;;;;;;19.05;6.53;;;18.80;99.90;;;;;;4999403;28;20072;-84
2023/10/12 03:47:05;;;;;;;17.55;6.50;;;18.70;99.90;;;;;;4993133;28;20067;-83
2023/10/12 03:49:32;;;;;;;21.13;5.90;;;18.70;99.90;;;;;;4997582;28;20033;-84
2023/10/12 03:52:12;;;;;;;26.45;8.45;;;18.60;99.90;;;;;;4999987;28;20058;-87
2023/10/12 03:54:55;;;;;;;25.63;6.93;;;18.60;99.90;;;;;;4997350;28;20130;-85
2023/10/12 03:58:15;;;;;;;30.45;7.55;;;18.50;99.90;;;;;;5001474;28;20050;-84
2023/10/12 04:05:35;;;;;;;20.88;6.75;;;18.50;99.90;;;;;;5000806;28;20042;-84
2023/10/12 04:19:02;;;;;;;17.88;6.25;;;18.40;99.90;;;;;;4999315;28;20098;-84
2023/10/12 04:21:33;;;;;;;20.30;6.50;;;18.40;99.90;;;;;;4999778;28;20031;-82
2023/10/12 04:27:00;;;;;;;20.40;6.80;;;18.30;99.90;;;;;;4995027;28;20610;-83
2023/10/12 04:29:30;;;;;;;24.13;7.23;;;18.30;99.90;;;;;;5008860;28;20022;-85
2023/10/12 04:32:16;;;;;;;17.40;5.38;;;18.20;99.90;;;;;;5008582;28;20292;-84
2023/10/12 04:34:49;;;;;;;13.80;6.72;;;18.10;99.90;;;;;;4994011;28;20050;-84
2023/10/12 04:37:25;;;;;;;26.73;7.13;;;18.00;99.90;;;;;;4997021;28;20102;-85
2023/10/12 04:39:56;;;;;;;28.55;7.03;;;17.90;99.90;;;;;;5000348;28;20026;-84
2023/10/12 04:42:33;;;;;;;21.88;7.78;;;17.90;99.90;;;;;;4991579;28;20061;-84
2023/10/12 04:47:48;;;;;;;22.63;7.18;;;17.70;99.90;;;;;;4997376;28;20041;-85
2023/10/12 04:50:27;;;;;;;21.17;6.80;;;17.60;99.90;;;;;;4993047;28;20091;-88
2023/10/12 04:53:35;;;;;;;18.20;8.40;;;17.60;99.90;;;;;;5001713;28;20045;-87
2023/10/12 04:55:47;;;;;;;25.98;8.68;;;17.50;99.90;;;;;;4989818;28;20167;-88
2023/10/12 04:58:36;;;;;;;35.70;7.80;;;17.50;99.90;;;;;;4988784;28;20109;-83
2023/10/12 05:01:22;;;;;;;32.00;9.02;;;17.40;99.90;;;;;;4992304;28;20053;-92
2023/10/12 05:06:46;;;;;;;22.23;8.90;;;17.10;99.90;;;;;;4994584;28;20655;-89
2023/10/12 05:09:18;;;;;;;22.45;8.70;;;17.00;99.90;;;;;;4992850;28;20486;-85
2023/10/12 05:11:46;;;;;;;19.75;8.45;;;17.00;99.90;;;;;;4996488;28;20057;-84
2023/10/12 05:14:15;;;;;;;17.98;8.70;;;16.90;99.90;;;;;;4996109;28;20044;-88
2023/10/12 05:16:45;;;;;;;16.73;8.35;;;16.90;99.90;;;;;;4993955;28;20062;-92
2023/10/12 05:19:15;;;;;;;23.17;9.75;;;16.90;99.90;;;;;;4996054;28;20096;-85
2023/10/12 05:21:43;;;;;;;19.88;9.50;;;16.80;99.90;;;;;;4992476;28;20406;-84
2023/10/12 05:24:09;;;;;;;34.45;9.85;;;16.80;99.90;;;;;;4994992;28;20036;-84
2023/10/12 05:26:36;;;;;;;32.25;10.48;;;16.70;99.90;;;;;;4999467;28;20471;-84
2023/10/12 05:37:16;;;;;;;19.95;7.93;;;16.60;99.90;;;;;;4999661;28;20033;-88
2023/10/12 05:39:50;;;;;;;16.98;7.95;;;16.60;99.90;;;;;;4997630;28;20026;-86
2023/10/12 05:42:22;;;;;;;20.20;8.43;;;16.70;99.90;;;;;;4989707;28;20034;-91
2023/10/12 05:44:52;;;;;;;21.35;8.27;;;16.70;99.90;;;;;;4993261;28;20475;-86
2023/10/12 05:47:28;;;;;;;19.00;9.70;;;16.60;99.90;;;;;;4991142;28;20152;-86
2023/10/12 05:50:06;;;;;;;24.95;9.13;;;16.60;99.90;;;;;;4995117;28;20018;-84
2023/10/12 05:52:34;;;;;;;16.92;8.93;;;16.70;99.90;;;;;;4992154;28;20044;-85
2023/10/12 05:55:07;;;;;;;16.67;9.45;;;16.60;99.90;;;;;;4997182;28;20482;-86
2023/10/12 05:57:34;;;;;;;16.15;8.75;;;16.60;99.90;;;;;;4995012;28;20159;-86
2023/10/12 06:00:09;;;;;;;26.80;9.23;;;16.60;99.90;;;;;;4998497;28;20033;-83
2023/10/12 06:02:37;;;;;;;20.92;10.15;;;16.50;99.90;;;;;;4986918;28;20143;-84
2023/10/12 06:05:05;;;;;;;18.63;9.07;;;16.60;99.90;;;;;;5002817;28;20065;-85
2023/10/12 06:07:31;;;;;;;26.90;9.85;;;16.50;99.90;;;;;;4993755;28;20120;-85
2023/10/12 06:09:57;;;;;;;21.58;10.20;;;16.50;99.90;;;;;;5000150;28;20463;-86
2023/10/12 06:12:24;;;;;;;23.73;9.80;;;16.50;99.90;;;;;;4990499;28;20033;-88
2023/10/12 06:14:53;;;;;;;16.05;8.43;;;16.50;99.90;;;;;;4996755;28;20072;-85
2023/10/12 06:17:30;;;;;;;14.20;8.43;;;16.40;99.90;;;;;;5002548;28;20061;-83
2023/10/12 06:20:13;;;;;;;19.33;9.20;;;16.50;99.90;;;;;;4991890;28;20427;-84
2023/10/12 06:22:39;;;;;;;19.98;9.05;;;16.50;99.90;;;;;;4995330;28;20113;-84
2023/10/12 06:25:10;;;;;;;15.40;8.30;;;16.50;99.90;;;;;;5003647;28;20121;-86
2023/10/12 06:27:37;;;;;;;16.85;8.25;;;16.50;99.90;;;;;;5004076;28;20109;-85
2023/10/12 06:30:05;;;;;;;18.88;8.80;;;16.50;99.90;;;;;;4995508;28;20402;-85
2023/10/12 06:32:36;;;;;;;17.55;9.45;;;16.50;99.90;;;;;;4994262;28;20026;-85
2023/10/12 06:35:11;;;;;;;13.35;8.32;;;16.50;99.90;;;;;;4999625;28;20534;-85
2023/10/12 06:37:49;;;;;;;;;;;16.50;99.90;;;;;;5003099;28;20053;-85
2023/10/12 06:46:04;;;;;;;29.92;11.63;;;16.50;99.90;;;;;;4995142;28;20049;-85
2023/10/12 06:51:06;;;;;;;27.52;12.48;;;16.50;99.90;;;;;;4992652;28;20117;-86
2023/10/12 06:53:36;;;;;;;25.90;12.27;;;16.60;99.90;;;;;;4993614;28;20045;-84
2023/10/12 06:56:24;;;;;;;21.17;11.15;;;16.50;99.90;;;;;;4997585;28;20082;-85
2023/10/12 06:59:09;;;;;;;17.45;10.65;;;16.50;99.90;;;;;;4990829;28;20027;-86
2023/10/12 07:01:51;;;;;;;23.73;9.95;;;16.50;99.90;;;;;;4995681;28;20030;-84
2023/10/12 07:04:20;;;;;;;20.90;10.13;;;16.40;99.90;;;;;;4997645;28;20061;-84
2023/10/12 07:06:59;;;;;;;23.88;10.95;;;16.40;99.90;;;;;;4997269;28;20037;-86
2023/10/12 07:09:39;;;;;;;31.08;10.00;;;16.40;99.90;;;;;;4995996;28;20041;-85
2023/10/12 07:12:08;;;;;;;25.25;10.85;;;16.40;99.90;;;;;;4994065;28;20022;-86
2023/10/12 07:14:38;;;;;;;14.90;8.52;;;16.30;99.90;;;;;;4990857;28;20055;-86
2023/10/12 07:17:09;;;;;;;22.63;8.98;;;16.30;99.90;;;;;;4993388;28;20214;-84
2023/10/12 07:19:56;;;;;;;20.10;8.55;;;16.30;99.90;;;;;;4994256;28;20110;-85
2023/10/12 07:22:22;;;;;;;26.30;7.63;;;16.30;99.90;;;;;;4994838;28;20026;-87
2023/10/12 07:24:53;;;;;;;18.20;7.95;;;16.40;99.90;;;;;;4998509;28;20036;-86
2023/10/12 07:27:21;;;;;;;25.25;7.85;;;16.40;99.90;;;;;;4993358;28;20030;-84
2023/10/12 07:29:47;;;;;;;20.50;8.18;;;16.40;99.90;;;;;;4996817;28;20409;-88
2023/10/12 07:35:17;;;;;;;23.60;7.40;;;16.40;99.90;;;;;;4997142;28;20091;-84
2023/10/12 07:37:43;;;;;;;13.00;7.32;;;16.30;99.90;;;;;;4997969;28;20040;-85
2023/10/12 07:40:19;;;;;;;14.20;6.80;;;16.30;99.90;;;;;;5000196;28;20100;-88
2023/10/12 07:42:46;;;;;;;16.13;6.30;;;16.30;99.90;;;;;;4994903;28;20037;-88
2023/10/12 07:45:17;;;;;;;20.23;6.40;;;16.20;99.90;;;;;;4997042;28;20064;-89
2023/10/12 07:47:42;;;;;;;16.23;6.47;;;16.20;99.90;;;;;;4987879;28;20105;-81
2023/10/12 07:50:23;;;;;;;16.65;6.03;;;16.20;99.90;;;;;;4992797;28;20526;-85
2023/10/12 07:52:48;;;;;;;17.30;5.70;;;16.20;99.90;;;;;;4993278;28;20030;-84
2023/10/12 07:55:17;;;;;;;15.30;5.22;;;16.20;99.90;;;;;;4998690;28;20037;-85
2023/10/12 07:57:44;;;;;;;13.20;4.80;;;16.20;99.90;;;;;;4990134;28;20586;-85
2023/10/12 08:05:19;;;;;;;15.10;6.13;;;16.20;99.90;;;;;;4990437;28;20034;-86
2023/10/12 08:23:49;;;;;;;11.80;4.88;;;16.20;99.90;;;;;;4991932;28;20045;-83
2023/10/12 08:32:04;;;;;;;16.95;4.88;;;16.20;99.90;;;;;;4972127;28;20030;-83
2023/10/12 08:42:37;;;;;;;13.88;5.05;;;16.30;99.90;;;;;;5001701;28;20026;-84
2023/10/12 08:45:15;;;;;;;11.02;4.47;;;16.20;99.90;;;;;;5001661;28;20074;-88
2023/10/12 08:47:44;;;;;;;17.85;6.78;;;16.30;99.90;;;;;;5000143;28;20037;-91
2023/10/12 08:52:52;;;;;;;14.57;4.30;;;16.30;99.90;;;;;;4997826;28;20066;-86
2023/10/12 08:55:24;;;;;;;12.00;4.90;;;16.30;99.90;;;;;;4992355;28;20041;-90
2023/10/12 08:58:18;;;;;;;17.17;4.50;;;16.30;99.90;;;;;;5001049;28;20461;-85
2023/10/12 09:03:28;;;;;;;11.65;4.15;;;16.30;99.90;;;;;;5003945;28;20079;-89
2023/10/12 09:06:10;;;;;;;7.72;3.35;;;16.40;99.90;;;;;;4998299;28;20030;-84
2023/10/12 09:08:39;;;;;;;9.10;4.00;;;16.40;99.90;;;;;;4997785;28;20878;-85
2023/10/12 09:13:35;;;;;;;17.85;4.35;;;16.40;99.90;;;;;;5000306;28;20022;-86
2023/10/12 09:16:08;;;;;;;11.70;4.55;;;16.40;99.90;;;;;;4996990;28;20077;-84
2023/10/12 09:18:49;;;;;;;15.43;3.78;;;16.50;99.90;;;;;;4998837;28;20041;-84
2023/10/12 09:24:05;;;;;;;7.78;3.75;;;16.50;99.90;;;;;;4998393;28;20045;-84
2023/10/12 09:26:33;;;;;;;8.10;3.43;;;16.60;99.90;;;;;;4989613;28;20030;-85
2023/10/12 09:36:53;;;;;;;11.32;4.07;;;16.60;99.90;;;;;;5000762;28;20091;-85
2023/10/12 09:39:33;;;;;;;10.45;3.80;;;16.60;99.90;;;;;;4998724;28;20586;-85
2023/10/12 09:42:14;;;;;;;27.27;4.70;;;16.70;99.90;;;;;;4993777;28;20029;-85
2023/10/12 09:44:40;;;;;;;15.25;3.95;;;16.70;99.90;;;;;;4989043;28;20026;-84
2023/10/12 09:47:15;;;;;;;10.07;3.47;;;16.70;99.90;;;;;;4989494;28;20044;-83
2023/10/12 09:49:55;;;;;;;13.68;4.28;;;16.70;99.90;;;;;;4993721;28;20026;-83
2023/10/12 09:52:24;;;;;;;17.27;4.38;;;16.70;99.90;;;;;;4992909;28;20475;-85
2023/10/12 09:55:06;;;;;;;10.77;3.78;;;16.70;99.90;;;;;;5001075;28;20137;-85
2023/10/12 09:57:36;;;;;;;8.98;3.40;;;16.80;99.90;;;;;;4999852;28;20022;-85
2023/10/12 10:03:04;;;;;;;6.03;3.00;;;16.80;99.90;;;;;;4914540;28;20026;-83
2023/10/12 10:05:51;;;;;;;10.77;3.53;;;16.70;99.90;;;;;;4975313;28;20080;-84
2023/10/12 10:08:18;;;;;;;7.10;3.60;;;16.70;99.90;;;;;;4993494;28;20029;-84
2023/10/12 10:10:45;;;;;;;6.20;3.20;;;16.80;99.90;;;;;;4996144;28;20034;-84
2023/10/12 10:13:46;;;;;;;9.60;3.90;;;16.80;99.90;;;;;;4996883;28;20103;-85
2023/10/12 10:16:18;;;;;;;10.10;3.03;;;16.80;99.90;;;;;;4992767;28;20035;-84
2023/10/12 10:18:48;;;;;;;10.65;3.83;;;16.80;99.90;;;;;;4990359;28;20022;-83
2023/10/12 10:21:19;;;;;;;8.82;3.28;;;16.80;99.90;;;;;;4998427;28;20014;-84
2023/10/12 10:23:48;;;;;;;4.72;2.53;;;16.80;99.90;;;;;;4996475;28;20018;-84
2023/10/12 10:26:30;;;;;;;12.55;3.92;;;16.80;99.90;;;;;;5000833;28;20041;-84
2023/10/12 10:29:17;;;;;;;8.18;4.10;;;16.90;99.90;;;;;;4994080;28;20036;-84
2023/10/12 10:31:43;;;;;;;7.72;3.40;;;16.90;99.90;;;;;;4997671;28;20232;-84
2023/10/12 10:34:12;;;;;;;7.63;3.38;;;16.90;99.90;;;;;;4994345;28;20496;-84
2023/10/12 10:36:37;;;;;;;8.73;3.58;;;16.90;99.90;;;;;;4990214;28;20026;-83
2023/10/12 10:39:47;;;;;;;7.70;3.80;;;16.90;99.90;;;;;;4999593;28;20462;-81
2023/10/12 10:41:56;;;;;;;11.50;3.92;;;16.90;99.90;;;;;;4997182;28;20060;-83
2023/10/12 10:44:23;;;;;;;5.72;3.38;;;16.90;99.90;;;;;;5002263;28;20034;-85
2023/10/12 10:46:54;;;;;;;4.22;3.40;;;16.80;99.90;;;;;;4996125;28;20083;-83
2023/10/12 10:49:21;;;;;;;5.40;3.53;;;16.70;99.90;;;;;;4992106;28;20033;-84
2023/10/12 10:51:48;;;;;;;3.88;2.95;;;16.70;99.90;;;;;;4993933;28;20022;-83
2023/10/12 10:54:18;;;;;;;4.18;2.35;;;16.60;99.90;;;;;;4995822;28;20071;-85
2023/10/12 10:56:49;;;;;;;7.53;3.58;;;16.50;99.90;;;;;;4993388;28;20047;-85
2023/10/12 10:59:19;;;;;;;4.30;2.47;;;16.40;99.90;;;;;;4991732;28;20069;-86
2023/10/12 11:01:49;;;;;;;7.63;2.50;;;16.30;99.90;;;;;;4997210;28;20099;-84
2023/10/12 11:04:41;;;;;;;5.88;2.25;;;16.20;99.90;;;;;;5000961;28;20402;-83
2023/10/12 11:07:09;;;;;;;5.18;2.00;;;16.10;99.90;;;;;;4992502;28;20022;-84
2023/10/12 11:12:20;;;;;;;6.57;2.40;;;15.90;99.90;;;;;;4999998;28;20029;-85
2023/10/12 11:15:01;;;;;;;4.78;1.98;;;15.80;99.90;;;;;;5000466;28;20541;-84
2023/10/12 11:17:35;;;;;;;4.32;2.38;;;15.70;99.90;;;;;;4993368;28;20022;-84
2023/10/12 11:20:07;;;;;;;3.33;2.17;;;15.70;99.90;;;;;;5000167;28;20029;-84
2023/10/12 11:22:37;;;;;;;1.45;1.30;;;15.70;99.90;;;;;;4997812;28;20029;-85
2023/10/12 11:25:15;;;;;;;1.35;1.27;;;15.70;99.90;;;;;;4996573;28;20389;-85
2023/10/12 11:27:42;;;;;;;3.45;1.73;;;15.70;99.90;;;;;;4999763;28;20022;-85
2023/10/12 11:30:08;;;;;;;4.93;1.67;;;15.60;99.90;;;;;;4995822;28;20034;-85
2023/10/12 11:32:53;;;;;;;2.90;1.15;;;15.60;99.90;;;;;;4997944;28;20110;-85
2023/10/12 11:35:40;;;;;;;3.25;1.30;;;15.60;99.90;;;;;;4999554;28;20033;-84
2023/10/12 11:38:17;;;;;;;3.10;1.50;;;15.60;99.90;;;;;;4995147;28;20043;-85
2023/10/12 11:40:52;;;;;;;3.53;1.55;;;15.60;99.90;;;;;;5000211;28;20037;-85
2023/10/12 11:43:19;;;;;;;2.43;1.67;;;15.50;99.90;;;;;;5001052;28;20049;-84
2023/10/12 11:46:01;;;;;;;1.40;1.20;;;15.50;99.90;;;;;;4994883;28;20030;-84
2023/10/12 11:48:28;;;;;;;1.52;1.30;;;15.50;99.90;;;;;;4998294;28;20026;-83
2023/10/12 11:50:58;;;;;;;5.25;1.60;;;15.50;99.90;;;;;;4986045;28;20026;-82
2023/10/12 11:53:28;;;;;;;3.30;1.35;;;15.40;99.90;;;;;;4993370;28;20042;-83
2023/10/12 11:56:13;;;;;;;1.52;1.17;;;15.50;99.90;;;;;;4993922;28;20061;-84
2023/10/12 11:58:40;;;;;;;3.88;1.40;;;15.40;99.90;;;;;;4999014;28;20072;-83
2023/10/12 12:01:09;;;;;;;1.98;1.10;;;15.40;99.90;;;;;;4995945;28;20462;-84
2023/10/12 12:03:39;;;;;;;1.85;1.15;;;15.30;99.90;;;;;;4992922;28;20050;-84
2023/10/12 12:06:32;;;;;;;2.75;1.40;;;15.30;99.90;;;;;;4997103;28;20034;-85
2023/10/12 12:08:56;;;;;;;1.90;1.00;;;15.30;99.90;;;;;;4993675;28;20053;-83
2023/10/12 12:11:31;;;;;;;4.43;1.10;;;15.30;99.90;;;;;;4994107;28;20026;-85
2023/10/12 12:13:57;;;;;;;2.88;1.23;;;15.30;99.90;;;;;;4994942;28;21012;-85
2023/10/12 12:16:22;;;;;;;0.70;0.70;;;15.30;99.90;;;;;;4993356;28;20054;-83
2023/10/12 12:18:51;;;;;;;1.48;1.10;;;15.30;99.90;;;;;;4990280;28;20025;-83
2023/10/12 12:21:18;;;;;;;1.20;1.10;;;15.30;99.90;;;;;;4996592;28;20023;-84
2023/10/12 12:23:48;;;;;;;2.42;1.48;;;15.30;99.90;;;;;;4993702;28;20022;-85
2023/10/12 12:26:19;;;;;;;0.73;0.73;;;15.30;99.90;;;;;;5001156;28;20070;-85
2023/10/12 12:28:45;;;;;;;2.05;0.95;;;15.30;99.90;;;;;;4993858;28;20707;-83
2023/10/12 12:31:16;;;;;;;0.85;0.85;;;15.30;99.90;;;;;;4998021;28;20034;-85
2023/10/12 12:33:45;;;;;;;1.50;1.27;;;15.30;99.90;;;;;;4995230;28;20444;-85
2023/10/12 12:36:23;;;;;;;1.00;0.90;;;15.30;99.90;;;;;;4999085;28;20022;-85
2023/10/12 12:38:57;;;;;;;1.00;1.00;;;15.30;99.90;;;;;;4997094;28;20030;-85
2023/10/12 12:41:23;;;;;;;5.90;2.10;;;15.30;99.90;;;;;;5000846;28;20735;-83
2023/10/12 12:43:53;;;;;;;2.30;1.70;;;15.30;99.90;;;;;;4999179;28;20079;-83
2023/10/12 12:46:21;;;;;;;3.42;2.53;;;15.30;99.90;;;;;;5001718;28;20026;-82
2023/10/12 12:48:50;;;;;;;3.65;2.80;;;15.30;99.90;;;;;;5001868;28;20568;-83
2023/10/12 12:51:19;;;;;;;2.38;2.00;;;15.40;99.90;;;;;;5001401;28;20022;-83
2023/10/12 12:53:46;;;;;;;1.38;1.27;;;15.40;99.90;;;;;;4991809;28;20040;-83
2023/10/12 12:56:17;;;;;;;1.40;1.30;;;15.40;99.90;;;;;;5027846;28;20029;-84
2023/10/12 12:58:54;;;;;;;0.98;0.98;;;15.40;99.90;;;;;;5002950;28;20026;-84
2023/10/12 13:01:26;;;;;;;4.75;2.08;;;15.40;99.90;;;;;;4996655;28;20065;-83
2023/10/12 13:03:52;;;;;;;1.52;1.27;;;15.30;99.90;;;;;;4994279;28;20034;-83
2023/10/12 13:06:22;;;;;;;4.45;1.75;;;15.30;99.90;;;;;;4998055;28;20113;-83
2023/10/12 13:08:48;;;;;;;3.45;1.67;;;15.30;99.90;;;;;;5015443;28;20033;-84
2023/10/12 13:11:17;;;;;;;2.15;1.65;;;15.30;99.90;;;;;;5001440;28;20034;-86
2023/10/12 13:13:43;;;;;;;3.25;1.80;;;15.20;99.90;;;;;;4996589;28;20032;-84
2023/10/12 13:16:12;;;;;;;4.43;2.58;;;15.20;99.90;;;;;;4998793;28;20038;-83
2023/10/12 13:18:46;;;;;;;4.03;2.53;;;15.20;99.90;;;;;;4993781;28;20664;-83
2023/10/12 13:21:14;;;;;;;3.08;2.53;;;15.20;99.90;;;;;;4996169;28;20037;-83
2023/10/12 13:23:45;;;;;;;2.90;2.38;;;15.10;99.90;;;;;;4998251;28;20030;-83
2023/10/12 13:26:19;;;;;;;2.55;2.35;;;15.10;99.90;;;;;;5000177;28;20104;-84
2023/10/12 13:28:45;;;;;;;2.42;2.22;;;15.20;99.90;;;;;;4991175;28;20026;-83
2023/10/12 13:31:11;;;;;;;3.35;2.70;;;15.10;99.90;;;;;;5001376;28;20413;-84
2023/10/12 13:33:39;;;;;;;4.05;2.63;;;15.20;99.90;;;;;;4991898;28;20091;-84
2023/10/12 13:36:08;;;;;;;3.20;2.40;;;15.20;99.90;;;;;;4993708;28;20018;-84
2023/10/12 13:38:37;;;;;;;2.83;2.53;;;15.10;99.90;;;;;;4996049;28;20033;-83
2023/10/12 13:41:04;;;;;;;4.18;2.50;;;15.20;99.90;;;;;;4996625;28;20030;-83
2023/10/12 13:43:33;;;;;;;3.00;2.70;;;15.20;99.90;;;;;;4998297;28;20046;-83
2023/10/12 13:46:06;;;;;;;4.85;3.13;;;15.20;99.90;;;;;;5003122;28;20044;-83
2023/10/12 13:48:37;;;;;;;7.13;3.38;;;15.30;99.90;;;;;;4999233;28;20170;-82
2023/10/12 13:51:04;;;;;;;4.28;2.30;;;15.20;99.90;;;;;;4993247;28;20034;-82
2023/10/12 13:53:36;;;;;;;5.70;4.60;;;15.20;99.90;;;;;;5002191;28;20305;-83
2023/10/12 13:56:04;;;;;;;3.30;3.00;;;15.20;99.90;;;;;;4991960;28;20082;-83
2023/10/12 13:58:37;;;;;;;11.60;4.18;;;15.20;99.90;;;;;;4993417;28;20022;-83
2023/10/12 14:01:04;;;;;;;4.97;4.20;;;15.20;99.90;;;;;;4994981;28;20018;-84
2023/10/12 14:03:34;;;;;;;6.88;6.20;;;15.20;99.90;;;;;;4999051;28;20026;-82
2023/10/12 14:06:02;;;;;;;7.68;6.07;;;15.20;99.90;;;;;;4993582;28;20022;-84
2023/10/12 14:08:32;;;;;;;6.75;4.70;;;15.20;99.90;;;;;;4999852;28;20018;-84
2023/10/12 14:11:12;;;;;;;6.03;4.93;;;15.20;99.90;;;;;;4999537;28;20105;-84
2023/10/12 14:13:38;;;;;;;7.30;5.72;;;15.20;99.90;;;;;;4995280;28;20312;-84
2023/10/12 14:16:09;;;;;;;5.75;4.50;;;15.20;99.90;;;;;;4999536;28;20050;-84
2023/10/12 14:18:36;;;;;;;5.93;4.72;;;15.30;99.90;;;;;;4995635;28;20087;-84
2023/10/12 14:21:02;;;;;;;6.13;3.67;;;15.30;99.90;;;;;;4992733;28;20025;-84
2023/10/12 14:23:29;;;;;;;4.28;3.60;;;15.30;99.90;;;;;;4992874;28;20083;-84
2023/10/12 14:25:57;;;;;;;7.53;4.28;;;15.20;99.90;;;;;;4998427;28;20052;-84
2023/10/12 14:28:31;;;;;;;4.90;3.75;;;15.30;99.90;;;;;;4994941;28;20529;-84
2023/10/12 14:30:57;;;;;;;5.85;3.67;;;15.30;99.90;;;;;;4993512;28;20449;-84
2023/10/12 14:33:23;;;;;;;6.85;5.57;;;15.30;99.90;;;;;;4988738;28;20117;-84
2023/10/12 14:35:58;;;;;;;10.88;7.13;;;15.30;99.90;;;;;;4992613;28;20152;-84
2023/10/12 14:38:24;;;;;;;11.23;7.53;;;15.30;99.90;;;;;;4989845;28;20018;-83
2023/10/12 14:40:56;;;;;;;9.75;6.55;;;15.30;99.90;;;;;;5011523;28;20029;-85
2023/10/12 14:43:23;;;;;;;6.53;5.80;;;15.30;99.90;;;;;;4994975;28;20041;-83
2023/10/12 14:45:55;;;;;;;7.75;5.68;;;15.30;99.90;;;;;;4993277;28;20374;-84
2023/10/12 14:48:30;;;;;;;5.63;5.13;;;15.40;99.90;;;;;;4997384;28;20030;-83
2023/10/12 14:51:12;;;;;;;5.63;4.53;;;15.40;99.90;;;;;;4998113;28;20030;-84
2023/10/12 14:53:39;;;;;;;7.05;4.50;;;15.30;99.90;;;;;;4993657;28;20050;-83
2023/10/12 14:56:08;;;;;;;9.02;5.93;;;15.30;99.90;;;;;;5000635;28;20477;-84
2023/10/12 14:58:34;;;;;;;5.47;4.95;;;15.30;99.90;;;;;;4996049;28;20026;-84
2023/10/12 15:01:00;;;;;;;5.70;4.32;;;15.30;99.90;;;;;;5001039;28;20047;-85
2023/10/12 15:03:26;;;;;;;5.10;4.00;;;15.20;99.90;;;;;;4998063;28;20041;-84
2023/10/12 15:05:55;;;;;;;6.90;4.93;;;15.30;99.90;;;;;;4993727;28;20022;-84
2023/10/12 15:08:23;;;;;;;9.23;4.80;;;15.20;99.90;;;;;;4997767;28;20467;-84
2023/10/12 15:10:49;;;;;;;6.43;4.63;;;15.20;99.90;;;;;;5000179;28;20109;-85
2023/10/12 15:13:16;;;;;;;4.20;3.70;;;15.30;99.90;;;;;;4994963;28;20113;-84
2023/10/12 15:15:46;;;;;;;7.00;3.70;;;15.30;99.90;;;;;;4995360;28;20634;-84
2023/10/12 15:18:15;;;;;;;8.23;4.63;;;15.20;99.90;;;;;;4994678;28;20030;-84
2023/10/12 15:20:43;;;;;;;7.20;4.60;;;15.30;99.90;;;;;;4996336;28;20485;-84